Guernsey Island, United Kingdom
Current Conditions -  °F | °C
As of 7:50 PM on Friday 24 Oct 2014 (Local Time) from EGJB Reporting Station
Broken Clouds Broken Clouds  
Wind Chill: 14°   Ceiling: 700
Heat Index: 14°   Visibility: 6mi
Dew Point: 14°   Wind: 12mph
Humidity: 100%   Direction: 280°W
Pressure: 30.03"   Gusts: NA
Location:  49.43°N, 2.6°W
Report Text: EGJB 241850Z 28010KT 9999 FEW004 BKN007 14/14 Q1017
Loading
Personal Weather Stations






























Interactive Weather Map
Tropical Storm Tracking
New forecast layout! Learn more

10-Day Weather Forecast

Advertisements
Track Severe Weather on mobile